sensor_id;sensor_type;location;lat;lon;timestamp;P1;durP1;ratioP1;P2;durP2;ratioP2
9186;SDS011;7273;48.902;9.410;2023-06-01T00:02:05;2.72;;;1.05;;
9186;SDS011;7273;48.902;9.410;2023-06-01T00:04:31;1.25;;;0.45;;
9186;SDS011;7273;48.902;9.410;2023-06-01T00:06:57;4.15;;;1.25;;
9186;SDS011;7273;48.902;9.410;2023-06-01T00:09:25;1.60;;;0.82;;
9186;SDS011;7273;48.902;9.410;2023-06-01T00:11:50;1.65;;;1.00;;
9186;SDS011;7273;48.902;9.410;2023-06-01T00:14:16;3.03;;;0.70;;
9186;SDS011;7273;48.902;9.410;2023-06-01T00:16:41;1.70;;;1.00;;
9186;SDS011;7273;48.902;9.410;2023-06-01T00:19:07;2.90;;;0.98;;
9186;SDS011;7273;48.902;9.410;2023-06-01T00:21:34;1.08;;;0.85;;
9186;SDS011;7273;48.902;9.410;2023-06-01T00:24:00;2.00;;;0.82;;
9186;SDS011;7273;48.902;9.410;2023-06-01T00:26:26;0.73;;;0.70;;
9186;SDS011;7273;48.902;9.410;2023-06-01T00:28:52;2.05;;;0.80;;
9186;SDS011;7273;48.902;9.410;2023-06-01T00:31:18;1.02;;;0.70;;
9186;SDS011;7273;48.902;9.410;2023-06-01T00:33:44;1.50;;;0.77;;
9186;SDS011;7273;48.902;9.410;2023-06-01T00:36:09;2.22;;;0.90;;
9186;SDS011;7273;48.902;9.410;2023-06-01T00:38:35;1.95;;;0.82;;
9186;SDS011;7273;48.902;9.410;2023-06-01T00:41:01;1.48;;;0.75;;
9186;SDS011;7273;48.902;9.410;2023-06-01T00:43:26;1.13;;;0.82;;
9186;SDS011;7273;48.902;9.410;2023-06-01T00:45:52;1.40;;;0.73;;
9186;SDS011;7273;48.902;9.410;2023-06-01T00:48:18;2.50;;;1.30;;
9186;SDS011;7273;48.902;9.410;2023-06-01T00:50:46;2.10;;;1.08;;
9186;SDS011;7273;48.902;9.410;2023-06-01T00:53:15;1.23;;;0.75;;
9186;SDS011;7273;48.902;9.410;2023-06-01T00:55:43;7.15;;;0.70;;
9186;SDS011;7273;48.902;9.410;2023-06-01T00:58:09;2.05;;;0.70;;
9186;SDS011;7273;48.902;9.410;2023-06-01T01:00:36;3.13;;;1.02;;
9186;SDS011;7273;48.902;9.410;2023-06-01T01:03:03;0.65;;;0.60;;
9186;SDS011;7273;48.902;9.410;2023-06-01T01:05:33;3.58;;;1.17;;
9186;SDS011;7273;48.902;9.410;2023-06-01T01:10:32;1.77;;;0.52;;
9186;SDS011;7273;48.902;9.410;2023-06-01T01:15:51;4.60;;;0.70;;
9186;SDS011;7273;48.902;9.410;2023-06-01T01:18:35;1.77;;;0.93;;
9186;SDS011;7273;48.902;9.410;2023-06-01T01:21:06;0.93;;;0.63;;
9186;SDS011;7273;48.902;9.410;2023-06-01T01:26:52;3.08;;;1.20;;
9186;SDS011;7273;48.902;9.410;2023-06-01T01:29:21;1.40;;;0.80;;
9186;SDS011;7273;48.902;9.410;2023-06-01T01:31:51;5.50;;;0.68;;
9186;SDS011;7273;48.902;9.410;2023-06-01T01:34:19;2.30;;;0.95;;
9186;SDS011;7273;48.902;9.410;2023-06-01T01:36:45;3.88;;;0.85;;
9186;SDS011;7273;48.902;9.410;2023-06-01T01:39:12;5.05;;;1.63;;
9186;SDS011;7273;48.902;9.410;2023-06-01T01:41:37;0.95;;;0.75;;
9186;SDS011;7273;48.902;9.410;2023-06-01T01:44:03;0.80;;;0.60;;
9186;SDS011;7273;48.902;9.410;2023-06-01T01:47:14;1.85;;;1.00;;
9186;SDS011;7273;48.902;9.410;2023-06-01T01:49:36;1.08;;;0.73;;
9186;SDS011;7273;48.902;9.410;2023-06-01T01:52:10;1.40;;;0.75;;
9186;SDS011;7273;48.902;9.410;2023-06-01T01:54:44;1.90;;;0.98;;
9186;SDS011;7273;48.902;9.410;2023-06-01T01:57:13;1.30;;;0.65;;
9186;SDS011;7273;48.902;9.410;2023-06-01T01:59:40;1.95;;;1.08;;
9186;SDS011;7273;48.902;9.410;2023-06-01T02:02:06;5.32;;;1.15;;
9186;SDS011;7273;48.902;9.410;2023-06-01T02:04:32;3.13;;;0.85;;
9186;SDS011;7273;48.902;9.410;2023-06-01T02:06:57;2.83;;;0.60;;
9186;SDS011;7273;48.902;9.410;2023-06-01T02:09:23;2.60;;;0.85;;
9186;SDS011;7273;48.902;9.410;2023-06-01T02:11:48;2.33;;;0.90;;
9186;SDS011;7273;48.902;9.410;2023-06-01T02:14:14;0.95;;;0.40;;
9186;SDS011;7273;48.902;9.410;2023-06-01T02:16:39;1.10;;;0.93;;
9186;SDS011;7273;48.902;9.410;2023-06-01T02:19:04;0.98;;;0.63;;
9186;SDS011;7273;48.902;9.410;2023-06-01T02:21:30;1.88;;;0.82;;
9186;SDS011;7273;48.902;9.410;2023-06-01T02:23:56;1.08;;;0.70;;
9186;SDS011;7273;48.902;9.410;2023-06-01T02:26:29;2.67;;;1.23;;
9186;SDS011;7273;48.902;9.410;2023-06-01T02:28:55;1.08;;;0.68;;
9186;SDS011;7273;48.902;9.410;2023-06-01T02:31:21;1.90;;;0.52;;
9186;SDS011;7273;48.902;9.410;2023-06-01T02:33:46;1.25;;;0.55;;
9186;SDS011;7273;48.902;9.410;2023-06-01T02:36:12;1.63;;;0.80;;
9186;SDS011;7273;48.902;9.410;2023-06-01T02:38:37;1.25;;;0.88;;
9186;SDS011;7273;48.902;9.410;2023-06-01T02:41:03;1.95;;;1.10;;
9186;SDS011;7273;48.902;9.410;2023-06-01T02:43:28;4.97;;;0.60;;
9186;SDS011;7273;48.902;9.410;2023-06-01T02:45:54;2.25;;;1.02;;
9186;SDS011;7273;48.902;9.410;2023-06-01T02:48:20;4.43;;;1.60;;
9186;SDS011;7273;48.902;9.410;2023-06-01T02:50:45;0.90;;;0.43;;
9186;SDS011;7273;48.902;9.410;2023-06-01T02:53:11;1.88;;;0.68;;
9186;SDS011;7273;48.902;9.410;2023-06-01T02:55:36;2.42;;;0.73;;
9186;SDS011;7273;48.902;9.410;2023-06-01T02:58:01;1.52;;;0.75;;
9186;SDS011;7273;48.902;9.410;2023-06-01T03:00:27;1.08;;;0.80;;
9186;SDS011;7273;48.902;9.410;2023-06-01T03:02:53;0.57;;;0.35;;
9186;SDS011;7273;48.902;9.410;2023-06-01T03:05:18;2.20;;;1.08;;
9186;SDS011;7273;48.902;9.410;2023-06-01T03:07:46;2.05;;;1.10;;
9186;SDS011;7273;48.902;9.410;2023-06-01T03:10:12;1.05;;;0.63;;
9186;SDS011;7273;48.902;9.410;2023-06-01T03:12:38;3.40;;;1.20;;
9186;SDS011;7273;48.902;9.410;2023-06-01T03:15:03;1.83;;;1.00;;
9186;SDS011;7273;48.902;9.410;2023-06-01T03:17:30;0.43;;;0.32;;
9186;SDS011;7273;48.902;9.410;2023-06-01T03:19:56;0.85;;;0.52;;
9186;SDS011;7273;48.902;9.410;2023-06-01T03:22:22;1.75;;;0.88;;
9186;SDS011;7273;48.902;9.410;2023-06-01T03:24:47;1.65;;;0.60;;
9186;SDS011;7273;48.902;9.410;2023-06-01T03:27:17;0.60;;;0.35;;
9186;SDS011;7273;48.902;9.410;2023-06-01T03:29:44;0.98;;;0.60;;
9186;SDS011;7273;48.902;9.410;2023-06-01T03:32:09;1.25;;;0.77;;
9186;SDS011;7273;48.902;9.410;2023-06-01T03:34:35;1.75;;;0.50;;
9186;SDS011;7273;48.902;9.410;2023-06-01T03:37:01;0.52;;;0.50;;
9186;SDS011;7273;48.902;9.410;2023-06-01T03:39:29;1.95;;;0.80;;
9186;SDS011;7273;48.902;9.410;2023-06-01T03:41:56;2.13;;;0.80;;
9186;SDS011;7273;48.902;9.410;2023-06-01T03:44:22;3.50;;;1.08;;
9186;SDS011;7273;48.902;9.410;2023-06-01T03:46:47;1.50;;;0.95;;
9186;SDS011;7273;48.902;9.410;2023-06-01T03:49:13;1.75;;;0.90;;
9186;SDS011;7273;48.902;9.410;2023-06-01T03:51:38;0.82;;;0.45;;
9186;SDS011;7273;48.902;9.410;2023-06-01T03:54:04;1.45;;;0.60;;
9186;SDS011;7273;48.902;9.410;2023-06-01T03:56:29;3.13;;;1.15;;
9186;SDS011;7273;48.902;9.410;2023-06-01T03:58:55;1.92;;;0.73;;
9186;SDS011;7273;48.902;9.410;2023-06-01T04:01:20;0.90;;;0.55;;
9186;SDS011;7273;48.902;9.410;2023-06-01T04:03:47;0.80;;;0.50;;
9186;SDS011;7273;48.902;9.410;2023-06-01T04:06:13;1.20;;;1.00;;
9186;SDS011;7273;48.902;9.410;2023-06-01T04:08:42;3.88;;;1.00;;
9186;SDS011;7273;48.902;9.410;2023-06-01T04:11:14;1.55;;;0.57;;
9186;SDS011;7273;48.902;9.410;2023-06-01T04:13:40;0.82;;;0.77;;
9186;SDS011;7273;48.902;9.410;2023-06-01T04:16:06;1.48;;;0.70;;
9186;SDS011;7273;48.902;9.410;2023-06-01T04:18:31;2.28;;;0.90;;
9186;SDS011;7273;48.902;9.410;2023-06-01T04:20:57;0.60;;;0.35;;
9186;SDS011;7273;48.902;9.410;2023-06-01T04:23:22;1.67;;;0.70;;
9186;SDS011;7273;48.902;9.410;2023-06-01T04:25:48;0.90;;;0.68;;
9186;SDS011;7273;48.902;9.410;2023-06-01T04:28:16;2.80;;;0.50;;
9186;SDS011;7273;48.902;9.410;2023-06-01T04:30:42;4.63;;;1.25;;
9186;SDS011;7273;48.902;9.410;2023-06-01T04:33:09;0.60;;;0.60;;
9186;SDS011;7273;48.902;9.410;2023-06-01T04:35:35;2.55;;;1.15;;
9186;SDS011;7273;48.902;9.410;2023-06-01T04:38:02;1.85;;;0.88;;
9186;SDS011;7273;48.902;9.410;2023-06-01T04:40:27;1.35;;;0.63;;
9186;SDS011;7273;48.902;9.410;2023-06-01T04:42:53;1.65;;;1.13;;
9186;SDS011;7273;48.902;9.410;2023-06-01T04:47:48;1.02;;;0.90;;
9186;SDS011;7273;48.902;9.410;2023-06-01T04:50:15;2.08;;;0.68;;
9186;SDS011;7273;48.902;9.410;2023-06-01T04:52:41;2.05;;;0.77;;
9186;SDS011;7273;48.902;9.410;2023-06-01T04:55:08;2.13;;;0.68;;
9186;SDS011;7273;48.902;9.410;2023-06-01T04:57:35;2.60;;;1.17;;
9186;SDS011;7273;48.902;9.410;2023-06-01T05:00:02;2.60;;;0.82;;
9186;SDS011;7273;48.902;9.410;2023-06-01T05:02:38;6.05;;;1.38;;
9186;SDS011;7273;48.902;9.410;2023-06-01T05:05:05;1.05;;;0.70;;
9186;SDS011;7273;48.902;9.410;2023-06-01T05:07:32;5.40;;;1.33;;
9186;SDS011;7273;48.902;9.410;2023-06-01T05:09:58;2.00;;;0.90;;
9186;SDS011;7273;48.902;9.410;2023-06-01T05:12:28;2.45;;;1.35;;
9186;SDS011;7273;48.902;9.410;2023-06-01T05:14:54;7.20;;;0.88;;
9186;SDS011;7273;48.902;9.410;2023-06-01T05:17:19;1.27;;;0.85;;
9186;SDS011;7273;48.902;9.410;2023-06-01T05:19:45;0.57;;;0.50;;
9186;SDS011;7273;48.902;9.410;2023-06-01T05:22:10;18.05;;;1.77;;
9186;SDS011;7273;48.902;9.410;2023-06-01T05:24:36;1.45;;;0.85;;
9186;SDS011;7273;48.902;9.410;2023-06-01T05:27:02;1.02;;;0.85;;
9186;SDS011;7273;48.902;9.410;2023-06-01T05:29:28;1.23;;;0.80;;
9186;SDS011;7273;48.902;9.410;2023-06-01T05:31:53;5.15;;;1.25;;
9186;SDS011;7273;48.902;9.410;2023-06-01T05:34:19;1.33;;;0.70;;
9186;SDS011;7273;48.902;9.410;2023-06-01T05:36:45;1.65;;;1.25;;
9186;SDS011;7273;48.902;9.410;2023-06-01T05:39:11;0.90;;;0.60;;
9186;SDS011;7273;48.902;9.410;2023-06-01T05:41:36;1.48;;;0.88;;
9186;SDS011;7273;48.902;9.410;2023-06-01T05:44:02;9.52;;;0.63;;
9186;SDS011;7273;48.902;9.410;2023-06-01T05:46:27;1.10;;;0.75;;
9186;SDS011;7273;48.902;9.410;2023-06-01T05:48:53;2.10;;;1.33;;
9186;SDS011;7273;48.902;9.410;2023-06-01T05:51:20;1.70;;;0.70;;
9186;SDS011;7273;48.902;9.410;2023-06-01T05:53:45;1.83;;;0.63;;
9186;SDS011;7273;48.902;9.410;2023-06-01T05:56:11;2.15;;;1.08;;
9186;SDS011;7273;48.902;9.410;2023-06-01T05:58:36;2.33;;;1.27;;
9186;SDS011;7273;48.902;9.410;2023-06-01T06:01:01;2.28;;;1.20;;
9186;SDS011;7273;48.902;9.410;2023-06-01T06:03:27;2.92;;;1.00;;
9186;SDS011;7273;48.902;9.410;2023-06-01T06:05:53;1.38;;;0.77;;
9186;SDS011;7273;48.902;9.410;2023-06-01T06:08:19;2.83;;;1.05;;
9186;SDS011;7273;48.902;9.410;2023-06-01T06:10:45;0.82;;;0.70;;
9186;SDS011;7273;48.902;9.410;2023-06-01T06:13:11;3.75;;;1.05;;
9186;SDS011;7273;48.902;9.410;2023-06-01T06:15:36;1.23;;;0.70;;
9186;SDS011;7273;48.902;9.410;2023-06-01T06:18:02;2.10;;;0.88;;
9186;SDS011;7273;48.902;9.410;2023-06-01T06:20:27;3.38;;;0.70;;
9186;SDS011;7273;48.902;9.410;2023-06-01T06:22:53;6.95;;;1.75;;
9186;SDS011;7273;48.902;9.410;2023-06-01T06:25:18;3.08;;;0.93;;
9186;SDS011;7273;48.902;9.410;2023-06-01T06:27:45;0.70;;;0.63;;
9186;SDS011;7273;48.902;9.410;2023-06-01T06:30:11;6.43;;;1.23;;
9186;SDS011;7273;48.902;9.410;2023-06-01T06:32:37;10.98;;;1.35;;
9186;SDS011;7273;48.902;9.410;2023-06-01T06:35:03;2.28;;;0.77;;
9186;SDS011;7273;48.902;9.410;2023-06-01T06:37:29;11.65;;;1.00;;
9186;SDS011;7273;48.902;9.410;2023-06-01T06:39:55;1.70;;;0.77;;
9186;SDS011;7273;48.902;9.410;2023-06-01T06:42:21;3.47;;;0.70;;
9186;SDS011;7273;48.902;9.410;2023-06-01T06:44:46;3.25;;;1.30;;
9186;SDS011;7273;48.902;9.410;2023-06-01T06:47:12;3.28;;;1.27;;
9186;SDS011;7273;48.902;9.410;2023-06-01T06:49:40;1.95;;;1.45;;
9186;SDS011;7273;48.902;9.410;2023-06-01T06:52:06;5.05;;;1.23;;
9186;SDS011;7273;48.902;9.410;2023-06-01T06:54:34;1.42;;;0.80;;
9186;SDS011;7273;48.902;9.410;2023-06-01T06:57:00;2.90;;;0.93;;
9186;SDS011;7273;48.902;9.410;2023-06-01T06:59:25;7.28;;;2.03;;
9186;SDS011;7273;48.902;9.410;2023-06-01T07:01:51;4.07;;;1.05;;
9186;SDS011;7273;48.902;9.410;2023-06-01T07:04:16;2.17;;;1.17;;
9186;SDS011;7273;48.902;9.410;2023-06-01T07:06:42;13.57;;;1.25;;
9186;SDS011;7273;48.902;9.410;2023-06-01T07:09:07;2.00;;;1.02;;
9186;SDS011;7273;48.902;9.410;2023-06-01T07:11:34;8.57;;;1.10;;
9186;SDS011;7273;48.902;9.410;2023-06-01T07:13:59;1.58;;;0.85;;
9186;SDS011;7273;48.902;9.410;2023-06-01T07:16:25;3.47;;;1.13;;
9186;SDS011;7273;48.902;9.410;2023-06-01T07:18:51;3.15;;;0.95;;
9186;SDS011;7273;48.902;9.410;2023-06-01T07:21:17;2.60;;;1.02;;
9186;SDS011;7273;48.902;9.410;2023-06-01T07:23:42;1.92;;;0.88;;
9186;SDS011;7273;48.902;9.410;2023-06-01T07:26:09;3.58;;;1.40;;
9186;SDS011;7273;48.902;9.410;2023-06-01T07:28:35;6.20;;;1.33;;
9186;SDS011;7273;48.902;9.410;2023-06-01T07:31:00;3.45;;;1.27;;
9186;SDS011;7273;48.902;9.410;2023-06-01T07:33:26;3.83;;;1.75;;
9186;SDS011;7273;48.902;9.410;2023-06-01T07:35:51;2.47;;;1.30;;
9186;SDS011;7273;48.902;9.410;2023-06-01T07:38:18;2.17;;;1.20;;
9186;SDS011;7273;48.902;9.410;2023-06-01T07:40:45;2.90;;;0.98;;
9186;SDS011;7273;48.902;9.410;2023-06-01T07:43:11;8.15;;;1.33;;
9186;SDS011;7273;48.902;9.410;2023-06-01T07:45:36;8.75;;;1.27;;
9186;SDS011;7273;48.902;9.410;2023-06-01T07:48:01;4.88;;;1.48;;
9186;SDS011;7273;48.902;9.410;2023-06-01T07:50:27;4.72;;;1.05;;
9186;SDS011;7273;48.902;9.410;2023-06-01T07:52:56;4.32;;;1.45;;
9186;SDS011;7273;48.902;9.410;2023-06-01T07:55:22;3.53;;;1.85;;
9186;SDS011;7273;48.902;9.410;2023-06-01T07:57:47;1.38;;;1.00;;
9186;SDS011;7273;48.902;9.410;2023-06-01T08:00:13;4.20;;;1.70;;
9186;SDS011;7273;48.902;9.410;2023-06-01T08:02:42;3.50;;;1.65;;
9186;SDS011;7273;48.902;9.410;2023-06-01T08:05:11;2.20;;;1.30;;
9186;SDS011;7273;48.902;9.410;2023-06-01T08:07:37;6.57;;;1.60;;
9186;SDS011;7273;48.902;9.410;2023-06-01T08:10:06;4.88;;;1.02;;
9186;SDS011;7273;48.902;9.410;2023-06-01T08:12:33;2.08;;;1.17;;
9186;SDS011;7273;48.902;9.410;2023-06-01T08:14:59;2.28;;;1.00;;
9186;SDS011;7273;48.902;9.410;2023-06-01T08:17:24;4.03;;;1.63;;
9186;SDS011;7273;48.902;9.410;2023-06-01T08:19:50;3.60;;;1.60;;
9186;SDS011;7273;48.902;9.410;2023-06-01T08:22:19;2.75;;;2.13;;
9186;SDS011;7273;48.902;9.410;2023-06-01T08:24:48;2.35;;;1.20;;
9186;SDS011;7273;48.902;9.410;2023-06-01T08:27:20;3.03;;;1.17;;
9186;SDS011;7273;48.902;9.410;2023-06-01T08:29:48;4.18;;;1.50;;
9186;SDS011;7273;48.902;9.410;2023-06-01T08:32:14;3.97;;;1.63;;
9186;SDS011;7273;48.902;9.410;2023-06-01T08:34:40;1.88;;;1.35;;
9186;SDS011;7273;48.902;9.410;2023-06-01T08:37:07;9.43;;;1.45;;
9186;SDS011;7273;48.902;9.410;2023-06-01T08:39:33;5.45;;;1.40;;
9186;SDS011;7273;48.902;9.410;2023-06-01T08:42:18;2.85;;;1.60;;
9186;SDS011;7273;48.902;9.410;2023-06-01T08:44:51;2.47;;;1.25;;
9186;SDS011;7273;48.902;9.410;2023-06-01T08:47:19;3.65;;;1.58;;
9186;SDS011;7273;48.902;9.410;2023-06-01T08:49:45;2.20;;;1.45;;
9186;SDS011;7273;48.902;9.410;2023-06-01T08:52:12;4.78;;;2.03;;
9186;SDS011;7273;48.902;9.410;2023-06-01T08:54:38;2.17;;;1.10;;
9186;SDS011;7273;48.902;9.410;2023-06-01T08:57:05;6.18;;;2.00;;
9186;SDS011;7273;48.902;9.410;2023-06-01T08:59:34;2.13;;;1.23;;
9186;SDS011;7273;48.902;9.410;2023-06-01T09:02:01;2.22;;;1.23;;
9186;SDS011;7273;48.902;9.410;2023-06-01T09:04:26;3.67;;;1.45;;
9186;SDS011;7273;48.902;9.410;2023-06-01T09:06:52;10.18;;;1.52;;
9186;SDS011;7273;48.902;9.410;2023-06-01T09:09:18;1.52;;;1.02;;
9186;SDS011;7273;48.902;9.410;2023-06-01T09:11:43;2.80;;;1.63;;
9186;SDS011;7273;48.902;9.410;2023-06-01T09:14:22;3.40;;;1.35;;
9186;SDS011;7273;48.902;9.410;2023-06-01T09:16:48;6.10;;;1.70;;
9186;SDS011;7273;48.902;9.410;2023-06-01T09:19:14;2.83;;;1.75;;
9186;SDS011;7273;48.902;9.410;2023-06-01T09:21:48;2.78;;;1.42;;
9186;SDS011;7273;48.902;9.410;2023-06-01T09:24:24;3.80;;;1.77;;
9186;SDS011;7273;48.902;9.410;2023-06-01T09:26:50;2.10;;;1.33;;
9186;SDS011;7273;48.902;9.410;2023-06-01T09:29:16;3.58;;;1.70;;
9186;SDS011;7273;48.902;9.410;2023-06-01T09:31:47;5.00;;;1.65;;
9186;SDS011;7273;48.902;9.410;2023-06-01T09:34:17;3.47;;;1.83;;
9186;SDS011;7273;48.902;9.410;2023-06-01T09:36:44;3.95;;;1.85;;
9186;SDS011;7273;48.902;9.410;2023-06-01T09:39:11;5.88;;;1.30;;
9186;SDS011;7273;48.902;9.410;2023-06-01T09:44:11;3.63;;;1.95;;
9186;SDS011;7273;48.902;9.410;2023-06-01T09:46:46;3.22;;;1.52;;
9186;SDS011;7273;48.902;9.410;2023-06-01T09:49:20;2.25;;;1.33;;
9186;SDS011;7273;48.902;9.410;2023-06-01T09:51:50;2.63;;;1.38;;
9186;SDS011;7273;48.902;9.410;2023-06-01T09:54:24;6.65;;;1.90;;
9186;SDS011;7273;48.902;9.410;2023-06-01T09:56:51;4.18;;;2.00;;
9186;SDS011;7273;48.902;9.410;2023-06-01T09:59:17;4.10;;;1.88;;
9186;SDS011;7273;48.902;9.410;2023-06-01T10:01:43;3.05;;;1.60;;
9186;SDS011;7273;48.902;9.410;2023-06-01T10:04:14;5.88;;;1.98;;
9186;SDS011;7273;48.902;9.410;2023-06-01T10:06:45;6.90;;;2.28;;
9186;SDS011;7273;48.902;9.410;2023-06-01T10:09:11;5.47;;;2.50;;
9186;SDS011;7273;48.902;9.410;2023-06-01T10:11:43;5.18;;;1.80;;
9186;SDS011;7273;48.902;9.410;2023-06-01T10:14:09;4.72;;;2.42;;
9186;SDS011;7273;48.902;9.410;2023-06-01T10:16:35;5.30;;;2.25;;
9186;SDS011;7273;48.902;9.410;2023-06-01T10:19:01;12.98;;;2.92;;
9186;SDS011;7273;48.902;9.410;2023-06-01T10:21:27;4.82;;;2.30;;
9186;SDS011;7273;48.902;9.410;2023-06-01T10:23:53;5.88;;;2.15;;
9186;SDS011;7273;48.902;9.410;2023-06-01T10:26:19;5.63;;;2.13;;
9186;SDS011;7273;48.902;9.410;2023-06-01T10:28:46;5.97;;;2.00;;
9186;SDS011;7273;48.902;9.410;2023-06-01T10:31:31;5.22;;;2.60;;
9186;SDS011;7273;48.902;9.410;2023-06-01T10:34:00;3.17;;;1.85;;
9186;SDS011;7273;48.902;9.410;2023-06-01T10:39:23;7.15;;;1.77;;
9186;SDS011;7273;48.902;9.410;2023-06-01T10:47:07;4.28;;;2.08;;
9186;SDS011;7273;48.902;9.410;2023-06-01T10:52:25;5.28;;;1.63;;
9186;SDS011;7273;48.902;9.410;2023-06-01T10:57:39;3.42;;;1.92;;
9186;SDS011;7273;48.902;9.410;2023-06-01T11:08:07;3.65;;;1.80;;
9186;SDS011;7273;48.902;9.410;2023-06-01T11:13:18;4.60;;;1.73;;
9186;SDS011;7273;48.902;9.410;2023-06-01T11:21:10;7.43;;;1.75;;
9186;SDS011;7273;48.902;9.410;2023-06-01T11:23:40;3.67;;;1.70;;
9186;SDS011;7273;48.902;9.410;2023-06-01T11:26:06;4.82;;;1.83;;
9186;SDS011;7273;48.902;9.410;2023-06-01T11:28:32;4.05;;;1.90;;
9186;SDS011;7273;48.902;9.410;2023-06-01T11:31:01;6.57;;;2.00;;
9186;SDS011;7273;48.902;9.410;2023-06-01T11:33:28;4.75;;;1.85;;
9186;SDS011;7273;48.902;9.410;2023-06-01T11:36:01;8.05;;;1.50;;
9186;SDS011;7273;48.902;9.410;2023-06-01T11:38:40;7.55;;;1.80;;
9186;SDS011;7273;48.902;9.410;2023-06-01T11:41:07;3.88;;;1.90;;
9186;SDS011;7273;48.902;9.410;2023-06-01T11:43:33;9.98;;;2.15;;
9186;SDS011;7273;48.902;9.410;2023-06-01T11:46:03;5.22;;;2.15;;
9186;SDS011;7273;48.902;9.410;2023-06-01T11:48:30;4.35;;;1.95;;
9186;SDS011;7273;48.902;9.410;2023-06-01T11:50:57;6.63;;;1.70;;
9186;SDS011;7273;48.902;9.410;2023-06-01T11:53:25;7.38;;;1.80;;
9186;SDS011;7273;48.902;9.410;2023-06-01T11:55:52;6.90;;;1.80;;
9186;SDS011;7273;48.902;9.410;2023-06-01T11:58:26;6.10;;;1.70;;
9186;SDS011;7273;48.902;9.410;2023-06-01T12:00:53;5.75;;;2.28;;
9186;SDS011;7273;48.902;9.410;2023-06-01T12:03:19;5.13;;;1.80;;
9186;SDS011;7273;48.902;9.410;2023-06-01T12:05:44;4.22;;;1.77;;
9186;SDS011;7273;48.902;9.410;2023-06-01T12:08:14;5.80;;;2.00;;
9186;SDS011;7273;48.902;9.410;2023-06-01T12:10:42;6.22;;;1.67;;
9186;SDS011;7273;48.902;9.410;2023-06-01T12:13:09;3.80;;;1.55;;
9186;SDS011;7273;48.902;9.410;2023-06-01T12:15:36;3.45;;;1.90;;
9186;SDS011;7273;48.902;9.410;2023-06-01T12:18:02;3.35;;;1.63;;
9186;SDS011;7273;48.902;9.410;2023-06-01T12:20:28;4.47;;;2.50;;
9186;SDS011;7273;48.902;9.410;2023-06-01T12:22:58;4.95;;;1.90;;
9186;SDS011;7273;48.902;9.410;2023-06-01T12:25:26;3.08;;;1.50;;
9186;SDS011;7273;48.902;9.410;2023-06-01T12:28:01;5.05;;;1.90;;
9186;SDS011;7273;48.902;9.410;2023-06-01T12:30:31;7.07;;;2.13;;
9186;SDS011;7273;48.902;9.410;2023-06-01T12:32:57;7.70;;;1.63;;
9186;SDS011;7273;48.902;9.410;2023-06-01T12:35:22;11.82;;;2.13;;
9186;SDS011;7273;48.902;9.410;2023-06-01T12:38:04;6.28;;;1.90;;
9186;SDS011;7273;48.902;9.410;2023-06-01T12:40:34;7.32;;;1.88;;
9186;SDS011;7273;48.902;9.410;2023-06-01T12:43:00;5.28;;;2.17;;
9186;SDS011;7273;48.902;9.410;2023-06-01T12:45:33;3.85;;;1.70;;
9186;SDS011;7273;48.902;9.410;2023-06-01T12:48:01;2.83;;;1.50;;
9186;SDS011;7273;48.902;9.410;2023-06-01T12:50:27;3.88;;;1.73;;
9186;SDS011;7273;48.902;9.410;2023-06-01T12:52:52;3.53;;;1.50;;
9186;SDS011;7273;48.902;9.410;2023-06-01T12:55:17;6.47;;;1.52;;
9186;SDS011;7273;48.902;9.410;2023-06-01T12:57:44;4.13;;;2.03;;
9186;SDS011;7273;48.902;9.410;2023-06-01T13:00:18;3.45;;;1.63;;
9186;SDS011;7273;48.902;9.410;2023-06-01T13:02:44;1.60;;;1.08;;
9186;SDS011;7273;48.902;9.410;2023-06-01T13:05:14;3.72;;;1.67;;
9186;SDS011;7273;48.902;9.410;2023-06-01T13:07:41;6.35;;;1.88;;
9186;SDS011;7273;48.902;9.410;2023-06-01T13:10:07;6.47;;;1.45;;
9186;SDS011;7273;48.902;9.410;2023-06-01T13:12:34;4.13;;;1.45;;
9186;SDS011;7273;48.902;9.410;2023-06-01T13:14:59;3.80;;;1.23;;
9186;SDS011;7273;48.902;9.410;2023-06-01T13:17:25;2.70;;;1.25;;
9186;SDS011;7273;48.902;9.410;2023-06-01T13:19:51;4.35;;;1.40;;
9186;SDS011;7273;48.902;9.410;2023-06-01T13:22:17;4.50;;;1.50;;
9186;SDS011;7273;48.902;9.410;2023-06-01T13:24:44;4.10;;;1.33;;
9186;SDS011;7273;48.902;9.410;2023-06-01T13:27:09;3.80;;;1.10;;
9186;SDS011;7273;48.902;9.410;2023-06-01T13:29:35;3.15;;;1.63;;
9186;SDS011;7273;48.902;9.410;2023-06-01T13:32:00;4.80;;;1.23;;
9186;SDS011;7273;48.902;9.410;2023-06-01T13:34:26;1.40;;;0.75;;
9186;SDS011;7273;48.902;9.410;2023-06-01T13:36:52;5.82;;;1.30;;
9186;SDS011;7273;48.902;9.410;2023-06-01T13:39:18;3.25;;;1.30;;
9186;SDS011;7273;48.902;9.410;2023-06-01T13:41:44;5.53;;;1.17;;
9186;SDS011;7273;48.902;9.410;2023-06-01T13:44:09;3.15;;;1.10;;
9186;SDS011;7273;48.902;9.410;2023-06-01T13:46:35;4.60;;;1.20;;
9186;SDS011;7273;48.902;9.410;2023-06-01T13:49:00;2.63;;;1.30;;
9186;SDS011;7273;48.902;9.410;2023-06-01T13:51:25;4.03;;;1.13;;
9186;SDS011;7273;48.902;9.410;2023-06-01T13:53:51;9.63;;;1.40;;
9186;SDS011;7273;48.902;9.410;2023-06-01T13:56:16;2.92;;;1.05;;
9186;SDS011;7273;48.902;9.410;2023-06-01T13:58:42;3.33;;;1.30;;
9186;SDS011;7273;48.902;9.410;2023-06-01T14:01:07;2.08;;;1.15;;
9186;SDS011;7273;48.902;9.410;2023-06-01T14:03:33;1.77;;;0.88;;
9186;SDS011;7273;48.902;9.410;2023-06-01T14:05:58;2.10;;;0.90;;
9186;SDS011;7273;48.902;9.410;2023-06-01T14:08:23;3.15;;;1.45;;
9186;SDS011;7273;48.902;9.410;2023-06-01T14:10:49;3.80;;;1.23;;
9186;SDS011;7273;48.902;9.410;2023-06-01T14:13:15;6.22;;;1.00;;
9186;SDS011;7273;48.902;9.410;2023-06-01T14:15:40;3.17;;;1.23;;
9186;SDS011;7273;48.902;9.410;2023-06-01T14:18:06;2.00;;;0.88;;
9186;SDS011;7273;48.902;9.410;2023-06-01T14:20:31;2.30;;;1.27;;
9186;SDS011;7273;48.902;9.410;2023-06-01T14:22:58;3.47;;;1.08;;
9186;SDS011;7273;48.902;9.410;2023-06-01T14:25:25;2.35;;;0.90;;
9186;SDS011;7273;48.902;9.410;2023-06-01T14:27:50;5.97;;;1.55;;
9186;SDS011;7273;48.902;9.410;2023-06-01T14:30:16;2.45;;;1.10;;
9186;SDS011;7273;48.902;9.410;2023-06-01T14:32:41;2.85;;;1.00;;
9186;SDS011;7273;48.902;9.410;2023-06-01T14:35:07;3.00;;;1.08;;
9186;SDS011;7273;48.902;9.410;2023-06-01T14:37:33;4.60;;;1.20;;
9186;SDS011;7273;48.902;9.410;2023-06-01T14:39:58;5.75;;;1.15;;
9186;SDS011;7273;48.902;9.410;2023-06-01T14:42:24;2.60;;;0.90;;
9186;SDS011;7273;48.902;9.410;2023-06-01T14:44:49;2.22;;;0.70;;
9186;SDS011;7273;48.902;9.410;2023-06-01T14:47:15;5.28;;;1.20;;
9186;SDS011;7273;48.902;9.410;2023-06-01T14:49:40;2.67;;;1.08;;
9186;SDS011;7273;48.902;9.410;2023-06-01T14:52:06;4.63;;;1.00;;
9186;SDS011;7273;48.902;9.410;2023-06-01T14:54:31;5.43;;;1.38;;
9186;SDS011;7273;48.902;9.410;2023-06-01T14:56:57;1.98;;;0.88;;
9186;SDS011;7273;48.902;9.410;2023-06-01T14:59:22;4.80;;;0.95;;
9186;SDS011;7273;48.902;9.410;2023-06-01T15:01:49;3.80;;;1.27;;
9186;SDS011;7273;48.902;9.410;2023-06-01T15:04:14;2.28;;;1.10;;
9186;SDS011;7273;48.902;9.410;2023-06-01T15:06:40;2.33;;;0.82;;
9186;SDS011;7273;48.902;9.410;2023-06-01T15:09:05;3.15;;;0.98;;
9186;SDS011;7273;48.902;9.410;2023-06-01T15:11:31;2.08;;;1.00;;
9186;SDS011;7273;48.902;9.410;2023-06-01T15:13:56;2.13;;;0.98;;
9186;SDS011;7273;48.902;9.410;2023-06-01T15:16:22;1.92;;;0.85;;
9186;SDS011;7273;48.902;9.410;2023-06-01T15:18:47;7.53;;;1.30;;
9186;SDS011;7273;48.902;9.410;2023-06-01T15:21:13;1.70;;;1.13;;
9186;SDS011;7273;48.902;9.410;2023-06-01T15:23:38;4.55;;;1.10;;
9186;SDS011;7273;48.902;9.410;2023-06-01T15:26:05;5.05;;;1.25;;
9186;SDS011;7273;48.902;9.410;2023-06-01T15:28:30;8.35;;;1.92;;
9186;SDS011;7273;48.902;9.410;2023-06-01T15:30:56;3.30;;;1.20;;
9186;SDS011;7273;48.902;9.410;2023-06-01T15:33:21;1.35;;;0.88;;
9186;SDS011;7273;48.902;9.410;2023-06-01T15:35:47;8.13;;;1.33;;
9186;SDS011;7273;48.902;9.410;2023-06-01T15:38:12;8.82;;;1.33;;
9186;SDS011;7273;48.902;9.410;2023-06-01T15:40:37;4.78;;;2.75;;
9186;SDS011;7273;48.902;9.410;2023-06-01T15:43:03;10.18;;;2.83;;
9186;SDS011;7273;48.902;9.410;2023-06-01T15:45:28;1.73;;;1.15;;
9186;SDS011;7273;48.902;9.410;2023-06-01T15:47:54;6.28;;;3.60;;
9186;SDS011;7273;48.902;9.410;2023-06-01T15:50:19;9.77;;;5.50;;
9186;SDS011;7273;48.902;9.410;2023-06-01T15:52:45;18.52;;;10.38;;
9186;SDS011;7273;48.902;9.410;2023-06-01T15:55:10;28.98;;;19.00;;
9186;SDS011;7273;48.902;9.410;2023-06-01T15:57:36;66.75;;;43.97;;